Time;durP1;ratioP1;P1;durP2;ratioP2;P2;SDS_P1;SDS_P2;PMS_P1;PMS_P2;Temp;Humidity;BMP_temperature;BMP_pressure;BME280_temperature;BME280_humidity;BME280_pressure;Samples;Min_cycle;Max_cycle;Signal;HPM_P1;HPM_P2
2022/05/07 00:00:29;;;;;;;11.60;4.95;;;15.80;99.90;;;;;;5054020;28;20025;-36
2022/05/07 00:02:55;;;;;;;11.65;5.03;;;15.80;99.90;;;;;;5054122;28;20013;-36
2022/05/07 00:05:21;;;;;;;7.90;4.60;;;15.80;99.90;;;;;;5053866;28;20025;-36
2022/05/07 00:07:48;;;;;;;12.38;5.38;;;15.80;99.90;;;;;;5053828;28;20579;-36
2022/05/07 00:10:15;;;;;;;8.70;4.45;;;15.70;99.90;;;;;;5053687;28;20085;-36
2022/05/07 00:12:41;;;;;;;10.80;3.90;;;15.70;99.90;;;;;;5053859;28;20453;-36
2022/05/07 00:15:08;;;;;;;5.47;3.55;;;15.70;99.90;;;;;;5053975;28;20132;-37
2022/05/07 00:18:18;;;;;;;3.47;3.05;;;15.70;99.90;;;;;;5053752;28;20452;-33
2022/05/07 00:20:22;;;;;;;6.93;3.25;;;15.70;99.90;;;;;;5053119;28;20503;-34
2022/05/07 00:22:48;;;;;;;5.00;3.30;;;15.70;99.90;;;;;;5053746;28;20382;-39
2022/05/07 00:25:13;;;;;;;8.95;2.80;;;15.70;99.90;;;;;;5053615;28;20023;-32
2022/05/07 00:27:40;;;;;;;6.78;3.42;;;15.70;99.90;;;;;;5053605;28;20543;-40
2022/05/07 00:30:07;;;;;;;4.45;2.75;;;15.70;99.90;;;;;;5053779;28;20477;-30
2022/05/07 00:32:33;;;;;;;5.63;3.13;;;15.70;99.90;;;;;;5053466;28;20028;-31
2022/05/07 00:34:59;;;;;;;6.38;2.42;;;15.70;99.90;;;;;;5053277;28;20029;-29
2022/05/07 00:37:24;;;;;;;2.70;2.20;;;15.70;99.90;;;;;;5052991;28;20028;-29
2022/05/07 00:39:51;;;;;;;8.60;2.33;;;15.70;99.90;;;;;;5053352;28;20024;-31
2022/05/07 00:42:17;;;;;;;6.72;2.55;;;15.70;99.90;;;;;;5053287;28;20021;-42
2022/05/07 00:44:43;;;;;;;3.50;2.20;;;15.70;99.90;;;;;;5052963;28;20059;-29
2022/05/07 00:47:14;;;;;;;5.32;2.70;;;15.70;99.90;;;;;;5053207;28;20067;-31
2022/05/07 00:49:48;;;;;;;5.47;2.75;;;15.70;99.90;;;;;;5053211;28;20036;-47
2022/05/07 00:52:14;;;;;;;4.82;2.85;;;15.70;99.90;;;;;;5053005;28;20082;-36
2022/05/07 00:54:41;;;;;;;8.32;2.53;;;15.70;99.90;;;;;;5053081;28;20487;-37
2022/05/07 00:57:12;;;;;;;8.80;2.80;;;15.70;99.90;;;;;;5053135;28;20021;-37
2022/05/07 00:59:38;;;;;;;5.18;3.08;;;15.70;99.90;;;;;;5053062;28;20024;-36
2022/05/07 01:02:04;;;;;;;4.38;3.17;;;15.70;99.90;;;;;;5052742;28;20477;-44
2022/05/07 01:04:29;;;;;;;5.35;2.55;;;15.70;99.90;;;;;;5051802;28;20021;-37
2022/05/07 01:06:55;;;;;;;4.13;2.30;;;15.60;99.90;;;;;;5051992;28;20033;-37
2022/05/07 01:09:21;;;;;;;6.32;2.70;;;15.60;99.90;;;;;;5051741;28;20025;-28
2022/05/07 01:11:47;;;;;;;3.78;2.38;;;15.60;99.90;;;;;;5052969;28;20059;-30
2022/05/07 01:14:13;;;;;;;5.28;2.67;;;15.60;99.90;;;;;;5052926;28;20036;-35
2022/05/07 01:16:38;;;;;;;6.85;2.78;;;15.60;99.90;;;;;;5052645;28;20037;-32
2022/05/07 01:19:04;;;;;;;8.77;2.70;;;15.60;99.90;;;;;;5052794;28;20561;-28
2022/05/07 01:21:30;;;;;;;8.18;2.67;;;15.60;99.90;;;;;;5052829;28;20055;-34
2022/05/07 01:23:56;;;;;;;3.72;2.80;;;15.60;99.90;;;;;;5052809;28;20486;-28
2022/05/07 01:26:23;;;;;;;5.30;2.20;;;15.60;99.90;;;;;;5052793;28;20096;-41
2022/05/07 01:28:49;;;;;;;7.32;2.83;;;15.60;99.90;;;;;;5053041;28;20017;-47
2022/05/07 01:31:14;;;;;;;5.60;2.90;;;15.60;99.90;;;;;;5053124;28;20029;-44
2022/05/07 01:33:40;;;;;;;5.70;2.28;;;15.60;99.90;;;;;;5049395;28;20111;-36
2022/05/07 01:36:09;;;;;;;12.82;3.10;;;15.60;99.90;;;;;;5033117;28;20053;-36
2022/05/07 01:38:35;;;;;;;6.63;3.40;;;15.50;99.90;;;;;;5032752;28;20018;-32
2022/05/07 01:41:03;;;;;;;8.95;3.05;;;15.50;99.90;;;;;;5032813;28;20033;-32
2022/05/07 01:43:32;;;;;;;5.65;3.53;;;15.50;99.90;;;;;;5032791;28;20448;-28
2022/05/07 01:46:01;;;;;;;7.07;3.45;;;15.50;99.90;;;;;;5032996;28;20087;-31
2022/05/07 01:48:27;;;;;;;3.75;2.47;;;15.50;99.90;;;;;;5033029;28;20578;-29
2022/05/07 01:50:52;;;;;;;5.40;3.10;;;15.50;99.90;;;;;;5036550;28;20104;-34
2022/05/07 01:53:18;;;;;;;7.03;2.85;;;15.50;99.90;;;;;;5036470;28;20029;-31
2022/05/07 01:55:44;;;;;;;6.68;3.95;;;15.50;99.90;;;;;;5036442;28;20029;-36
2022/05/07 01:58:10;;;;;;;6.53;3.05;;;15.50;99.90;;;;;;5036536;28;20169;-42
2022/05/07 02:00:42;;;;;;;6.18;3.30;;;15.40;99.90;;;;;;5036388;28;20017;-37
2022/05/07 02:03:08;;;;;;;7.25;4.13;;;15.40;99.90;;;;;;5035108;28;20032;-36
2022/05/07 02:05:34;;;;;;;6.95;3.33;;;15.30;99.90;;;;;;5036327;28;20030;-37
2022/05/07 02:08:00;;;;;;;15.35;3.40;;;15.30;99.90;;;;;;5036515;28;20026;-37
2022/05/07 02:10:26;;;;;;;8.13;4.28;;;15.30;99.90;;;;;;5036214;28;20037;-37
2022/05/07 02:12:52;;;;;;;9.23;3.08;;;15.30;99.90;;;;;;5036481;28;20021;-48
2022/05/07 02:15:17;;;;;;;7.57;3.67;;;15.20;99.90;;;;;;5035787;28;20122;-37
2022/05/07 02:17:43;;;;;;;6.72;3.15;;;15.10;99.90;;;;;;5036013;28;20184;-35
2022/05/07 02:20:09;;;;;;;7.10;3.10;;;15.20;99.90;;;;;;5036007;28;20025;-32
2022/05/07 02:22:35;;;;;;;7.00;2.97;;;15.10;99.90;;;;;;5034624;28;20022;-38
2022/05/07 02:25:02;;;;;;;5.05;2.75;;;15.10;99.90;;;;;;5035902;28;20503;-31
2022/05/07 02:27:28;;;;;;;6.05;3.38;;;15.00;99.90;;;;;;5035881;28;20100;-28
2022/05/07 02:29:53;;;;;;;5.78;3.42;;;15.00;99.90;;;;;;5035956;28;20128;-36
2022/05/07 02:32:19;;;;;;;9.65;3.75;;;15.00;99.90;;;;;;5035783;28;20026;-37
2022/05/07 02:34:45;;;;;;;5.00;2.78;;;14.90;99.90;;;;;;5035735;28;20044;-37
2022/05/07 02:37:11;;;;;;;5.38;3.00;;;14.90;99.90;;;;;;5035674;28;20041;-35
2022/05/07 02:39:37;;;;;;;5.75;2.40;;;14.90;99.90;;;;;;5035673;28;20026;-36
2022/05/07 02:44:47;;;;;;;9.70;3.78;;;14.90;99.90;;;;;;5035701;28;20043;-36
2022/05/07 02:47:13;;;;;;;7.65;3.90;;;14.90;99.90;;;;;;5035476;28;20037;-33
2022/05/07 02:49:39;;;;;;;6.47;3.33;;;14.90;99.90;;;;;;5035466;28;20037;-30
2022/05/07 02:52:05;;;;;;;4.97;3.30;;;14.80;99.90;;;;;;5035382;28;20029;-30
2022/05/07 02:54:30;;;;;;;6.57;3.97;;;14.80;99.90;;;;;;5035335;28;20032;-32
2022/05/07 02:56:56;;;;;;;5.82;3.60;;;14.80;99.90;;;;;;5035277;28;20535;-29
2022/05/07 02:59:22;;;;;;;9.20;4.88;;;14.80;99.90;;;;;;5035105;28;20021;-38
2022/05/07 03:01:48;;;;;;;5.25;3.42;;;14.80;99.90;;;;;;5035167;28;20044;-30
2022/05/07 03:04:14;;;;;;;4.85;3.10;;;14.80;99.90;;;;;;5035250;28;20033;-33
2022/05/07 03:06:39;;;;;;;8.43;3.88;;;14.80;99.90;;;;;;5035472;28;20056;-30
2022/05/07 03:09:07;;;;;;;7.35;3.75;;;14.80;99.90;;;;;;5035099;28;20101;-34
2022/05/07 03:11:34;;;;;;;6.93;3.80;;;14.80;99.90;;;;;;5035156;28;20108;-31
2022/05/07 03:14:00;;;;;;;8.13;4.20;;;14.80;99.90;;;;;;5035284;28;20481;-28
2022/05/07 03:16:26;;;;;;;16.10;4.47;;;14.80;99.90;;;;;;5034724;28;20128;-34
2022/05/07 03:18:52;;;;;;;10.50;3.95;;;14.70;99.90;;;;;;5034932;28;20124;-37
2022/05/07 03:21:17;;;;;;;10.75;4.10;;;14.80;99.90;;;;;;5034950;28;20025;-38
2022/05/07 03:23:44;;;;;;;8.65;4.43;;;14.80;99.90;;;;;;5034854;28;20029;-37
2022/05/07 03:26:11;;;;;;;9.10;3.65;;;14.70;99.90;;;;;;5034807;28;20029;-36
2022/05/07 03:28:37;;;;;;;9.13;3.83;;;14.70;99.90;;;;;;5035021;28;20542;-35
2022/05/07 03:31:03;;;;;;;8.10;4.30;;;14.70;99.90;;;;;;5034730;28;20033;-36
2022/05/07 03:33:29;;;;;;;9.30;4.07;;;14.70;99.90;;;;;;5036406;28;20029;-36
2022/05/07 03:35:54;;;;;;;9.25;4.63;;;14.70;99.90;;;;;;5054765;28;20064;-36
2022/05/07 03:38:20;;;;;;;8.50;4.50;;;14.70;99.90;;;;;;5053291;28;20021;-37
2022/05/07 03:40:45;;;;;;;10.30;4.65;;;14.70;99.90;;;;;;5054757;28;20388;-56
2022/05/07 03:43:11;;;;;;;9.40;4.85;;;14.70;99.90;;;;;;5054502;28;20032;-36
2022/05/07 03:45:36;;;;;;;8.77;4.28;;;14.60;99.90;;;;;;5054358;28;20499;-37
2022/05/07 03:48:02;;;;;;;10.13;5.25;;;14.60;99.90;;;;;;5054262;28;20497;-31
2022/05/07 03:50:28;;;;;;;7.88;4.07;;;14.60;99.90;;;;;;5054268;28;20477;-29
2022/05/07 03:55:41;;;;;;;10.82;4.55;;;14.60;99.90;;;;;;5054293;28;20032;-37
2022/05/07 03:58:17;;;;;;;9.02;4.50;;;14.50;99.90;;;;;;5054427;28;20095;-37
2022/05/07 04:00:43;;;;;;;7.40;4.45;;;14.50;99.90;;;;;;5054380;28;20114;-38
2022/05/07 04:03:10;;;;;;;7.63;4.50;;;14.40;99.90;;;;;;5053965;28;20021;-37
2022/05/07 04:05:36;;;;;;;7.32;4.72;;;14.40;99.90;;;;;;5053976;28;20120;-38
2022/05/07 04:08:01;;;;;;;10.30;4.55;;;14.40;99.90;;;;;;5053917;28;20504;-37
2022/05/07 04:10:27;;;;;;;9.60;5.00;;;14.40;99.90;;;;;;5053886;28;20029;-45
2022/05/07 04:12:52;;;;;;;11.57;5.22;;;14.40;99.90;;;;;;5052236;28;20520;-29
2022/05/07 04:15:18;;;;;;;9.95;4.45;;;14.40;99.90;;;;;;5053806;28;20048;-29
2022/05/07 04:17:44;;;;;;;10.05;4.63;;;14.30;99.90;;;;;;5053720;28;20040;-29
2022/05/07 04:20:11;;;;;;;8.88;4.45;;;14.30;99.90;;;;;;5052433;28;20028;-37
2022/05/07 04:22:37;;;;;;;10.45;5.45;;;14.30;99.90;;;;;;5053586;28;20021;-35
2022/05/07 04:25:07;;;;;;;7.45;4.93;;;14.30;99.90;;;;;;5053857;28;20048;-30
2022/05/07 04:27:33;;;;;;;10.40;4.97;;;14.40;99.90;;;;;;5052355;28;20037;-34
2022/05/07 04:29:58;;;;;;;8.88;5.35;;;14.40;99.90;;;;;;5053500;28;20029;-29
2022/05/07 04:32:25;;;;;;;12.18;4.93;;;14.30;99.90;;;;;;5052189;28;20045;-29
2022/05/07 04:34:51;;;;;;;8.85;5.10;;;14.30;99.90;;;;;;5040285;28;20025;-29
2022/05/07 04:37:17;;;;;;;9.73;5.00;;;14.20;99.90;;;;;;5033401;28;20509;-31
2022/05/07 04:39:43;;;;;;;7.53;4.47;;;14.20;99.90;;;;;;5033439;28;20030;-35
2022/05/07 04:42:09;;;;;;;10.93;5.05;;;14.20;99.90;;;;;;5033417;28;20030;-37
2022/05/07 04:44:34;;;;;;;20.10;5.47;;;14.20;99.90;;;;;;5031769;28;20056;-37
2022/05/07 04:47:00;;;;;;;14.98;5.82;;;14.20;99.90;;;;;;5033364;28;20084;-37
2022/05/07 04:49:26;;;;;;;8.02;4.90;;;14.30;99.90;;;;;;5032186;28;20497;-37
2022/05/07 04:51:51;;;;;;;11.88;6.10;;;14.30;99.90;;;;;;5033265;28;20397;-41
2022/05/07 04:54:21;;;;;;;11.23;5.68;;;14.30;99.90;;;;;;5033243;28;20022;-40
2022/05/07 04:56:48;;;;;;;9.15;5.15;;;14.40;99.90;;;;;;5033250;28;20025;-37
2022/05/07 04:59:14;;;;;;;11.05;4.78;;;14.40;99.90;;;;;;5033311;28;20049;-37
2022/05/07 05:01:40;;;;;;;11.93;5.88;;;14.40;99.90;;;;;;5033126;28;20025;-37
2022/05/07 05:04:06;;;;;;;15.43;5.93;;;14.40;99.90;;;;;;5033083;28;20029;-37
2022/05/07 05:06:31;;;;;;;11.82;5.90;;;14.40;99.90;;;;;;5033403;28;20029;-37
2022/05/07 05:08:57;;;;;;;20.10;5.97;;;14.40;99.90;;;;;;5033097;28;20104;-39
2022/05/07 05:11:22;;;;;;;13.60;5.88;;;14.40;99.90;;;;;;5033064;28;20512;-37
2022/05/07 05:13:48;;;;;;;15.57;6.28;;;14.50;99.90;;;;;;5033052;28;20033;-53
2022/05/07 05:16:14;;;;;;;12.40;6.00;;;14.50;99.90;;;;;;5032831;28;20091;-40
2022/05/07 05:18:40;;;;;;;15.57;6.47;;;14.40;99.90;;;;;;5032999;28;20018;-36
2022/05/07 05:21:05;;;;;;;15.65;6.35;;;14.40;99.90;;;;;;5033076;28;20025;-36
2022/05/07 05:23:31;;;;;;;15.75;6.57;;;14.40;99.90;;;;;;5033456;28;20497;-36
2022/05/07 05:25:57;;;;;;;14.40;6.80;;;14.40;99.90;;;;;;5037075;28;20044;-36
2022/05/07 05:28:22;;;;;;;25.52;7.60;;;14.40;99.90;;;;;;5037022;28;20029;-36
2022/05/07 05:30:51;;;;;;;21.70;7.72;;;14.40;99.90;;;;;;5035903;28;20033;-35
2022/05/07 05:33:21;;;;;;;23.90;8.10;;;14.40;99.90;;;;;;5036753;28;20029;-34
2022/05/07 05:35:47;;;;;;;21.08;9.18;;;14.40;99.90;;;;;;5036705;28;20096;-38
2022/05/07 05:38:13;;;;;;;26.10;8.98;;;14.30;99.90;;;;;;5036832;28;20026;-38
2022/05/07 05:40:41;;;;;;;37.67;9.43;;;14.40;99.90;;;;;;5036676;28;20469;-45
2022/05/07 05:43:06;;;;;;;;;;;14.30;99.90;;;;;;5037381;28;20025;-36
2022/05/07 05:45:32;;;;;;;24.20;8.30;;;14.40;99.90;;;;;;5035408;28;19909;-37
2022/05/07 05:47:57;;;;;;;33.72;10.48;;;14.60;99.90;;;;;;5036580;28;20025;-31
2022/05/07 05:50:23;;;;;;;27.73;10.23;;;14.60;99.90;;;;;;5035321;28;20363;-34
2022/05/07 05:52:48;;;;;;;20.00;10.43;;;14.50;99.90;;;;;;5036432;28;20029;-28
2022/05/07 05:55:14;;;;;;;27.52;9.63;;;14.50;99.90;;;;;;5036722;28;20401;-30
2022/05/07 05:57:40;;;;;;;21.15;9.65;;;14.50;99.90;;;;;;5036425;28;20029;-28
2022/05/07 06:00:09;;;;;;;21.20;10.38;;;14.50;99.90;;;;;;5036321;28;20529;-29
2022/05/07 06:02:35;;;;;;;24.55;9.13;;;14.60;99.90;;;;;;5036317;28;20493;-32
2022/05/07 06:05:00;;;;;;;23.33;9.85;;;14.60;99.90;;;;;;5036390;28;20047;-34
2022/05/07 06:07:26;;;;;;;33.97;11.95;;;14.70;99.90;;;;;;5036251;28;20120;-28
2022/05/07 06:09:51;;;;;;;25.30;12.25;;;14.70;99.90;;;;;;5036179;28;20025;-34
2022/05/07 06:12:17;;;;;;;26.40;11.65;;;14.70;99.90;;;;;;5036160;28;20033;-29
2022/05/07 06:14:43;;;;;;;25.55;12.15;;;14.70;99.90;;;;;;5034881;28;20112;-31
2022/05/07 06:17:08;;;;;;;33.75;12.18;;;14.80;99.90;;;;;;5035840;28;20073;-32
2022/05/07 06:19:34;;;;;;;29.80;13.15;;;14.70;99.90;;;;;;5036261;28;20041;-31
2022/05/07 06:22:00;;;;;;;26.67;12.70;;;14.70;99.90;;;;;;5036258;28;20080;-39
2022/05/07 06:27:28;;;;;;;29.65;12.85;;;14.60;99.90;;;;;;5035861;28;20455;-28
2022/05/07 06:29:54;;;;;;;38.67;14.20;;;14.70;99.90;;;;;;5035956;28;20021;-29
2022/05/07 06:32:20;;;;;;;40.42;13.63;;;14.80;99.90;;;;;;5035814;28;20021;-29
2022/05/07 06:34:46;;;;;;;34.38;13.27;;;15.00;99.90;;;;;;5035082;28;20544;-31
2022/05/07 06:37:12;;;;;;;31.48;13.55;;;15.20;99.90;;;;;;5035570;28;20025;-33
2022/05/07 06:39:38;;;;;;;38.72;13.77;;;15.50;99.90;;;;;;5035695;28;20390;-35
2022/05/07 06:42:04;;;;;;;33.20;13.65;;;15.70;99.90;;;;;;5035605;28;20033;-32
2022/05/07 06:44:30;;;;;;;27.80;13.05;;;15.90;99.90;;;;;;5035621;28;20026;-35
2022/05/07 06:46:56;;;;;;;34.95;13.40;;;16.40;99.90;;;;;;5035545;28;20074;-45
2022/05/07 06:49:23;;;;;;;35.90;14.02;;;17.00;99.90;;;;;;5034156;28;20482;-29
2022/05/07 06:51:48;;;;;;;36.28;13.27;;;17.60;99.90;;;;;;5035720;28;20022;-31
2022/05/07 06:54:14;;;;;;;31.13;13.82;;;17.60;99.90;;;;;;5035407;28;20504;-29
2022/05/07 06:56:40;;;;;;;34.85;12.25;;;17.70;99.90;;;;;;5035306;28;20509;-33
2022/05/07 06:59:11;;;;;;;26.55;12.85;;;17.80;99.90;;;;;;5035289;28;20053;-29
2022/05/07 07:01:37;;;;;;;32.75;13.07;;;18.00;99.90;;;;;;5035528;28;20028;-30
2022/05/07 07:04:03;;;;;;;31.20;12.57;;;18.00;99.90;;;;;;5035235;28;20018;-30
2022/05/07 07:06:29;;;;;;;26.80;11.52;;;18.40;99.90;;;;;;5035445;28;20399;-29
2022/05/07 07:08:56;;;;;;;27.25;12.27;;;18.60;99.90;;;;;;5035080;28;20036;-35
2022/05/07 07:11:22;;;;;;;27.80;11.35;;;18.80;99.90;;;;;;5035267;28;20465;-30
2022/05/07 07:13:48;;;;;;;37.45;12.00;;;18.60;99.90;;;;;;5035018;28;20032;-48
2022/05/07 07:16:14;;;;;;;26.90;12.00;;;18.40;99.90;;;;;;5034814;28;20544;-39
2022/05/07 07:18:39;;;;;;;26.55;11.88;;;18.30;99.90;;;;;;5035300;28;20021;-36
2022/05/07 07:21:05;;;;;;;26.63;12.48;;;18.10;99.90;;;;;;5035230;28;20469;-37
2022/05/07 07:23:31;;;;;;;26.48;11.18;;;18.10;99.90;;;;;;5035206;28;20018;-37
2022/05/07 07:25:57;;;;;;;23.80;11.10;;;18.00;99.90;;;;;;5034805;28;20037;-37
2022/05/07 07:28:23;;;;;;;28.45;10.00;;;17.80;99.90;;;;;;5035018;28;20397;-41
2022/05/07 07:30:49;;;;;;;17.60;8.35;;;17.60;99.90;;;;;;5034747;28;20029;-37
2022/05/07 07:33:15;;;;;;;26.63;9.95;;;17.70;99.90;;;;;;5034648;28;20029;-37
2022/05/07 07:35:42;;;;;;;21.67;9.70;;;17.70;99.90;;;;;;5034721;28;20057;-37
2022/05/07 07:38:07;;;;;;;22.73;9.47;;;17.80;99.90;;;;;;5034541;28;20099;-37
2022/05/07 07:40:34;;;;;;;20.90;9.40;;;17.90;99.90;;;;;;5034658;28;20033;-37
2022/05/07 07:42:59;;;;;;;29.02;9.88;;;17.90;99.90;;;;;;5032943;28;20486;-36
2022/05/07 07:48:10;;;;;;;24.33;9.10;;;17.60;99.90;;;;;;5034162;28;20131;-38
2022/05/07 07:50:38;;;;;;;14.13;7.20;;;17.50;99.90;;;;;;5034280;28;20022;-37
2022/05/07 07:53:06;;;;;;;19.15;8.23;;;17.50;99.90;;;;;;5034531;28;20021;-38
2022/05/07 07:55:31;;;;;;;16.52;7.32;;;17.60;99.90;;;;;;5034455;28;20363;-38
2022/05/07 07:57:58;;;;;;;17.08;8.82;;;17.80;99.90;;;;;;5034075;28;20026;-38
2022/05/07 08:00:26;;;;;;;16.58;7.80;;;18.00;99.90;;;;;;5034212;28;20029;-31
2022/05/07 08:02:56;;;;;;;21.02;8.50;;;18.10;99.90;;;;;;5034061;28;20485;-33
2022/05/07 08:05:23;;;;;;;22.08;8.55;;;18.20;99.90;;;;;;5034088;28;20029;-38
2022/05/07 08:13:17;;;;;;;18.63;8.05;;;18.80;99.90;;;;;;5034115;28;20530;-31
2022/05/07 08:15:44;;;;;;;12.55;6.55;;;19.10;99.90;;;;;;5031853;28;20073;-30
2022/05/07 08:18:09;;;;;;;17.63;7.85;;;19.30;99.90;;;;;;5032577;28;20410;-31
2022/05/07 08:20:35;;;;;;;11.95;6.97;;;19.50;99.90;;;;;;5034025;28;20033;-33
2022/05/07 08:23:00;;;;;;;19.80;7.78;;;19.60;99.90;;;;;;5033690;28;20064;-30
2022/05/07 08:25:26;;;;;;;15.35;8.25;;;19.70;99.90;;;;;;5033642;28;20108;-33
2022/05/07 08:27:51;;;;;;;19.13;7.68;;;19.60;99.90;;;;;;5033646;28;20034;-37
2022/05/07 08:30:17;;;;;;;18.33;8.27;;;19.70;99.90;;;;;;5033640;28;20082;-32
2022/05/07 08:32:43;;;;;;;15.70;7.53;;;19.60;99.90;;;;;;5033513;28;20037;-33
2022/05/07 08:35:08;;;;;;;15.93;7.53;;;19.60;99.90;;;;;;5048974;28;20040;-29
2022/05/07 08:37:34;;;;;;;19.23;8.07;;;19.80;99.90;;;;;;5053327;28;20500;-48
2022/05/07 08:40:01;;;;;;;14.95;7.57;;;19.80;99.90;;;;;;5052055;28;20028;-38
2022/05/07 08:42:29;;;;;;;15.57;7.75;;;20.10;99.90;;;;;;5053199;28;20499;-37
2022/05/07 08:44:56;;;;;;;12.70;6.97;;;20.40;99.90;;;;;;5053374;28;20046;-39
2022/05/07 08:47:23;;;;;;;19.60;8.85;;;20.60;99.90;;;;;;5053475;28;20133;-33
2022/05/07 08:49:50;;;;;;;20.70;8.35;;;20.70;99.90;;;;;;5053465;28;20029;-30
2022/05/07 08:52:17;;;;;;;13.55;7.25;;;20.80;99.90;;;;;;5053197;28;20025;-31
2022/05/07 08:54:44;;;;;;;;;;;20.90;99.90;;;;;;5053818;28;20025;-31
2022/05/07 08:57:09;;;;;;;10.98;6.13;;;20.40;99.90;;;;;;5052911;28;19919;-34
2022/05/07 08:59:35;;;;;;;18.60;6.68;;;20.50;99.90;;;;;;5053077;28;20020;-38
2022/05/07 09:02:00;;;;;;;19.33;6.90;;;20.60;99.90;;;;;;5052980;28;20058;-29
2022/05/07 09:04:26;;;;;;;14.25;6.85;;;20.50;99.90;;;;;;5052999;28;20024;-34
2022/05/07 09:07:03;;;;;;;17.60;7.70;;;20.70;99.90;;;;;;5053069;28;20397;-33
2022/05/07 09:09:31;;;;;;;17.92;7.50;;;20.70;99.90;;;;;;5053371;28;20497;-34
2022/05/07 09:11:58;;;;;;;14.52;7.53;;;20.80;99.90;;;;;;5053200;28;20529;-30
2022/05/07 09:14:31;;;;;;;8.83;4.93;;;21.00;99.90;;;;;;5052983;28;20060;-33
2022/05/07 09:17:00;;;;;;;13.25;7.30;;;21.10;99.90;;;;;;5052664;28;20040;-53
2022/05/07 09:19:31;;;;;;;12.95;5.82;;;20.90;99.90;;;;;;5052837;28;20052;-29
2022/05/07 09:22:11;;;;;;;11.07;6.28;;;20.70;99.90;;;;;;5052791;28;20017;-36
2022/05/07 09:24:38;;;;;;;12.70;6.43;;;20.90;99.90;;;;;;5053165;28;20392;-32
2022/05/07 09:27:04;;;;;;;15.07;6.97;;;21.20;99.90;;;;;;5052839;28;20044;-29
2022/05/07 09:29:31;;;;;;;14.17;6.30;;;21.60;99.90;;;;;;5053101;28;20078;-39
2022/05/07 09:32:07;;;;;;;10.53;5.90;;;22.00;99.90;;;;;;5052792;28;20457;-30
2022/05/07 09:37:32;;;;;;;6.72;4.20;;;22.10;99.90;;;;;;5052639;28;20095;-33
2022/05/07 09:40:06;;;;;;;12.63;5.57;;;21.80;99.90;;;;;;5052785;28;20025;-30
2022/05/07 09:42:33;;;;;;;9.32;4.45;;;21.30;99.90;;;;;;5052644;28;20033;-34
2022/05/07 09:45:03;;;;;;;5.15;4.18;;;21.00;99.90;;;;;;5052519;28;20115;-32
2022/05/07 09:47:29;;;;;;;11.07;4.82;;;21.00;99.90;;;;;;5052583;28;20540;-30
2022/05/07 09:57:30;;;;;;;20.63;4.60;;;21.20;99.90;;;;;;5052548;28;20071;-31
2022/05/07 09:58:15;;;;;;;10.68;5.07;;;21.30;99.90;;;;;;5052471;28;20547;-32
2022/05/07 10:00:57;;;;;;;15.35;7.20;;;21.30;99.90;;;;;;5052718;28;20028;-43
2022/05/07 10:03:31;;;;;;;10.77;5.90;;;21.50;99.90;;;;;;5052725;28;20029;-35
2022/05/07 10:06:28;;;;;;;11.48;6.28;;;21.60;99.90;;;;;;5052731;28;20445;-32
2022/05/07 10:09:23;;;;;;;24.33;9.95;;;21.60;99.90;;;;;;5041195;28;20048;-34
2022/05/07 10:11:57;;;;;;;15.10;7.55;;;21.30;99.90;;;;;;5056280;28;20060;-39
2022/05/07 10:14:26;;;;;;;19.42;8.35;;;21.10;99.90;;;;;;5056133;28;20118;-39
2022/05/07 10:17:09;;;;;;;23.92;10.52;;;21.00;99.90;;;;;;5055808;28;20064;-40
2022/05/07 10:19:41;;;;;;;16.98;9.18;;;20.90;99.90;;;;;;5056324;28;20028;-40
2022/05/07 10:22:26;;;;;;;21.10;10.95;;;20.80;99.90;;;;;;5055858;28;20037;-37
2022/05/07 10:25:07;;;;;;;16.65;10.13;;;21.00;99.90;;;;;;5055955;28;20025;-39
2022/05/07 10:27:35;;;;;;;14.80;8.57;;;21.50;99.90;;;;;;5055865;28;20040;-40
2022/05/07 10:30:14;;;;;;;20.65;8.75;;;21.40;99.90;;;;;;5054507;28;20044;-38
2022/05/07 10:33:01;;;;;;;15.80;8.07;;;21.40;99.90;;;;;;5055721;28;20037;-40
2022/05/07 10:35:53;;;;;;;23.40;9.65;;;21.20;99.90;;;;;;5055904;28;20040;-31
2022/05/07 10:38:39;;;;;;;23.27;10.45;;;21.30;99.90;;;;;;5055883;28;20385;-35
2022/05/07 10:41:09;;;;;;;21.02;10.75;;;21.30;99.90;;;;;;5055430;28;20057;-33
2022/05/07 10:43:37;;;;;;;18.95;8.85;;;21.00;99.90;;;;;;5055530;28;20614;-33
2022/05/07 10:46:11;;;;;;;17.65;9.85;;;21.30;99.90;;;;;;5055405;28;20032;-34
2022/05/07 10:48:47;;;;;;;15.80;8.55;;;21.40;99.90;;;;;;5055775;28;20032;-35
2022/05/07 10:51:17;;;;;;;19.60;10.35;;;21.20;99.90;;;;;;5055671;28;20041;-32
2022/05/07 10:53:42;;;;;;;17.48;9.65;;;21.40;99.90;;;;;;5055167;28;20044;-35
2022/05/07 10:56:27;;;;;;;18.52;10.05;;;21.70;99.90;;;;;;5055336;28;20489;-33
2022/05/07 10:58:57;;;;;;;16.38;8.43;;;21.70;99.90;;;;;;5055054;28;20503;-31
2022/05/07 11:01:25;;;;;;;19.83;9.25;;;21.80;99.90;;;;;;5054752;28;20029;-36
2022/05/07 11:04:05;;;;;;;13.55;8.32;;;21.60;99.90;;;;;;5055420;28;20426;-31
2022/05/07 11:06:42;;;;;;;16.42;7.88;;;21.70;99.90;;;;;;5055088;28;20097;-31
2022/05/07 11:09:14;;;;;;;16.67;7.85;;;21.80;99.90;;;;;;5055386;28;20062;-29
2022/05/07 11:11:44;;;;;;;15.73;7.32;;;21.70;99.90;;;;;;5054984;28;20037;-33
2022/05/07 11:14:10;;;;;;;19.55;7.85;;;21.30;99.90;;;;;;5055297;28;20048;-29
2022/05/07 11:16:41;;;;;;;15.43;8.00;;;20.90;99.90;;;;;;5054811;28;20401;-33
2022/05/07 11:19:07;;;;;;;13.98;7.72;;;20.70;99.90;;;;;;5054906;28;20036;-33
2022/05/07 11:21:37;;;;;;;17.25;7.95;;;20.60;99.90;;;;;;5054782;28;20396;-32
2022/05/07 11:24:03;;;;;;;19.42;7.88;;;20.50;99.90;;;;;;5055159;28;20477;-35
2022/05/07 11:26:30;;;;;;;22.95;8.38;;;20.30;99.90;;;;;;5054997;28;20033;-31
2022/05/07 11:28:56;;;;;;;12.48;7.05;;;20.20;99.90;;;;;;5055043;28;20025;-35
2022/05/07 11:31:29;;;;;;;13.40;7.57;;;20.10;99.90;;;;;;5054633;28;20037;-43
2022/05/07 11:34:11;;;;;;;18.63;7.70;;;20.30;99.90;;;;;;5054349;28;20021;-48
2022/05/07 11:36:38;;;;;;;11.80;7.35;;;20.50;99.90;;;;;;5054732;28;20029;-35
2022/05/07 11:39:06;;;;;;;14.80;8.10;;;20.70;99.90;;;;;;5054562;28;20032;-44
2022/05/07 11:41:32;;;;;;;18.05;9.02;;;20.90;99.90;;;;;;5054408;28;20021;-32
2022/05/07 11:46:56;;;;;;;11.35;6.43;;;20.90;99.90;;;;;;5054557;28;20108;-33
2022/05/07 11:49:33;;;;;;;15.60;7.82;;;21.40;99.90;;;;;;5054358;28;20024;-30
2022/05/07 11:52:11;;;;;;;;;;;21.50;99.90;;;;;;5054622;28;20032;-32
2022/05/07 11:54:51;;;;;;;20.88;8.82;;;21.60;99.90;;;;;;5054184;28;19990;-43
2022/05/07 11:57:47;;;;;;;15.25;8.18;;;21.70;99.90;;;;;;5054120;28;20417;-37
2022/05/07 12:00:17;;;;;;;14.32;8.13;;;21.40;99.90;;;;;;5049562;28;20040;-31
2022/05/07 12:02:53;;;;;;;14.48;7.18;;;21.30;99.90;;;;;;5054262;28;20116;-30
2022/05/07 12:05:20;;;;;;;11.65;7.95;;;21.40;99.90;;;;;;5053835;28;20477;-29
2022/05/07 12:07:50;;;;;;;18.67;8.65;;;21.40;99.90;;;;;;5053829;28;20025;-31
2022/05/07 12:10:17;;;;;;;12.43;7.68;;;21.40;99.90;;;;;;5053759;28;20028;-31
2022/05/07 12:12:46;;;;;;;17.33;7.72;;;21.40;99.90;;;;;;5054085;28;20068;-43
2022/05/07 12:15:12;;;;;;;13.38;7.47;;;21.80;99.90;;;;;;5053470;28;20057;-28
2022/05/07 12:17:53;;;;;;;14.52;7.47;;;21.60;99.90;;;;;;5053580;28;20106;-30
2022/05/07 12:20:23;;;;;;;18.13;7.70;;;21.60;99.90;;;;;;5054021;28;20049;-32
2022/05/07 12:31:07;;;;;;;19.17;9.00;;;22.10;99.90;;;;;;5053801;28;20146;-30
2022/05/07 12:33:34;;;;;;;16.40;9.10;;;21.90;99.90;;;;;;5053139;28;20025;-35
2022/05/07 12:35:59;;;;;;;13.40;8.27;;;21.80;99.90;;;;;;5053399;28;20025;-42
2022/05/07 12:38:25;;;;;;;17.52;9.10;;;21.90;99.90;;;;;;5053362;28;20392;-32
2022/05/07 12:40:51;;;;;;;13.80;8.23;;;21.90;99.90;;;;;;5053384;28;20029;-33
2022/05/07 12:43:16;;;;;;;16.05;9.45;;;21.90;99.90;;;;;;5053413;28;20330;-35
2022/05/07 12:45:43;;;;;;;13.82;7.78;;;22.10;99.90;;;;;;5053318;28;20396;-31
2022/05/07 12:48:09;;;;;;;18.83;8.95;;;22.30;99.90;;;;;;5051977;28;20488;-31
2022/05/07 12:50:34;;;;;;;20.42;10.23;;;22.30;99.90;;;;;;5053188;28;20040;-42
2022/05/07 12:53:00;;;;;;;19.38;9.50;;;22.30;99.90;;;;;;5052158;28;20041;-28
2022/05/07 12:55:25;;;;;;;17.17;9.48;;;22.00;99.90;;;;;;5053200;28;20029;-33
2022/05/07 12:57:51;;;;;;;17.83;8.60;;;22.10;99.90;;;;;;5053058;28;20114;-33
2022/05/07 13:00:17;;;;;;;18.60;9.45;;;21.90;99.90;;;;;;5053105;28;20051;-34
2022/05/07 13:02:43;;;;;;;13.98;8.10;;;21.70;99.90;;;;;;5052894;28;20052;-30
2022/05/07 13:05:09;;;;;;;16.67;8.93;;;21.90;99.90;;;;;;5053341;28;20057;-30
2022/05/07 13:07:34;;;;;;;13.05;7.47;;;21.80;99.90;;;;;;5053014;28;20057;-30
2022/05/07 13:10:00;;;;;;;15.98;8.38;;;21.90;99.90;;;;;;5052903;28;20029;-31
2022/05/07 13:12:26;;;;;;;19.73;8.07;;;21.80;99.90;;;;;;5053033;28;20490;-33
2022/05/07 13:14:51;;;;;;;19.70;8.35;;;21.80;99.90;;;;;;5053196;28;20083;-36
2022/05/07 13:17:17;;;;;;;19.70;9.55;;;21.70;99.90;;;;;;5052646;28;20048;-33
2022/05/07 13:19:42;;;;;;;15.45;8.77;;;21.70;99.90;;;;;;5051761;28;20489;-29